sensor_id;sensor_type;location;lat;lon;timestamp;P1;durP1;ratioP1;P2;durP2;ratioP2
61391;SDS011;47261;52.892;5.738;2023-03-31T00:01:58;19.05;;;2.15;;
61391;SDS011;47261;52.892;5.738;2023-03-31T00:04:25;28.63;;;2.95;;
61391;SDS011;47261;52.892;5.738;2023-03-31T00:06:53;21.15;;;2.67;;
61391;SDS011;47261;52.892;5.738;2023-03-31T00:09:19;9.43;;;1.83;;
61391;SDS011;47261;52.892;5.738;2023-03-31T00:11:46;21.27;;;2.45;;
61391;SDS011;47261;52.892;5.738;2023-03-31T00:14:13;21.45;;;1.92;;
61391;SDS011;47261;52.892;5.738;2023-03-31T00:16:42;26.67;;;3.78;;
61391;SDS011;47261;52.892;5.738;2023-03-31T00:19:08;17.30;;;1.83;;
61391;SDS011;47261;52.892;5.738;2023-03-31T00:21:42;13.70;;;1.53;;
61391;SDS011;47261;52.892;5.738;2023-03-31T00:24:09;22.95;;;2.17;;
61391;SDS011;47261;52.892;5.738;2023-03-31T00:26:36;15.93;;;1.50;;
61391;SDS011;47261;52.892;5.738;2023-03-31T00:29:04;22.33;;;2.03;;
61391;SDS011;47261;52.892;5.738;2023-03-31T00:31:31;16.30;;;1.92;;
61391;SDS011;47261;52.892;5.738;2023-03-31T00:33:57;28.17;;;2.80;;
61391;SDS011;47261;52.892;5.738;2023-03-31T00:36:23;16.65;;;1.92;;
61391;SDS011;47261;52.892;5.738;2023-03-31T00:38:52;18.05;;;1.88;;
61391;SDS011;47261;52.892;5.738;2023-03-31T00:41:19;15.68;;;1.85;;
61391;SDS011;47261;52.892;5.738;2023-03-31T00:46:34;18.88;;;1.88;;
61391;SDS011;47261;52.892;5.738;2023-03-31T00:49:31;19.35;;;2.45;;
61391;SDS011;47261;52.892;5.738;2023-03-31T00:52:00;16.83;;;2.93;;
61391;SDS011;47261;52.892;5.738;2023-03-31T00:54:48;21.88;;;2.20;;
61391;SDS011;47261;52.892;5.738;2023-03-31T00:57:17;19.27;;;2.15;;
61391;SDS011;47261;52.892;5.738;2023-03-31T00:59:51;22.73;;;2.00;;
61391;SDS011;47261;52.892;5.738;2023-03-31T01:02:20;14.00;;;2.05;;
61391;SDS011;47261;52.892;5.738;2023-03-31T01:04:50;12.70;;;1.33;;
61391;SDS011;47261;52.892;5.738;2023-03-31T01:07:27;17.48;;;1.83;;
61391;SDS011;47261;52.892;5.738;2023-03-31T01:10:07;22.90;;;2.20;;
61391;SDS011;47261;52.892;5.738;2023-03-31T01:12:36;12.63;;;1.50;;
61391;SDS011;47261;52.892;5.738;2023-03-31T01:15:04;14.70;;;1.50;;
61391;SDS011;47261;52.892;5.738;2023-03-31T01:17:31;16.83;;;1.53;;
61391;SDS011;47261;52.892;5.738;2023-03-31T01:22:43;16.88;;;1.75;;
61391;SDS011;47261;52.892;5.738;2023-03-31T01:42:38;23.40;;;2.25;;
61391;SDS011;47261;52.892;5.738;2023-03-31T01:48:16;24.75;;;2.47;;
61391;SDS011;47261;52.892;5.738;2023-03-31T01:50:52;23.77;;;2.10;;
61391;SDS011;47261;52.892;5.738;2023-03-31T01:56:24;18.10;;;2.70;;
61391;SDS011;47261;52.892;5.738;2023-03-31T01:59:00;22.23;;;1.83;;
61391;SDS011;47261;52.892;5.738;2023-03-31T02:01:36;27.17;;;2.78;;
61391;SDS011;47261;52.892;5.738;2023-03-31T02:04:20;19.90;;;2.40;;
61391;SDS011;47261;52.892;5.738;2023-03-31T02:07:03;18.80;;;1.90;;
61391;SDS011;47261;52.892;5.738;2023-03-31T02:09:37;35.60;;;4.68;;
61391;SDS011;47261;52.892;5.738;2023-03-31T02:12:08;23.20;;;2.40;;
61391;SDS011;47261;52.892;5.738;2023-03-31T02:14:36;22.15;;;2.95;;
61391;SDS011;47261;52.892;5.738;2023-03-31T02:17:05;26.67;;;2.10;;
61391;SDS011;47261;52.892;5.738;2023-03-31T02:19:37;17.55;;;1.90;;
61391;SDS011;47261;52.892;5.738;2023-03-31T02:22:05;19.88;;;1.73;;
61391;SDS011;47261;52.892;5.738;2023-03-31T02:24:33;26.07;;;2.00;;
61391;SDS011;47261;52.892;5.738;2023-03-31T02:29:47;25.63;;;2.30;;
61391;SDS011;47261;52.892;5.738;2023-03-31T02:32:24;24.48;;;2.05;;
61391;SDS011;47261;52.892;5.738;2023-03-31T02:34:56;17.05;;;1.77;;
61391;SDS011;47261;52.892;5.738;2023-03-31T02:37:22;17.17;;;1.97;;
61391;SDS011;47261;52.892;5.738;2023-03-31T02:39:49;15.25;;;1.70;;
61391;SDS011;47261;52.892;5.738;2023-03-31T02:42:18;18.75;;;1.52;;
61391;SDS011;47261;52.892;5.738;2023-03-31T02:44:44;10.45;;;1.67;;
61391;SDS011;47261;52.892;5.738;2023-03-31T02:47:11;12.00;;;1.50;;
61391;SDS011;47261;52.892;5.738;2023-03-31T02:49:39;16.10;;;2.07;;
61391;SDS011;47261;52.892;5.738;2023-03-31T02:52:25;6.82;;;0.88;;
61391;SDS011;47261;52.892;5.738;2023-03-31T02:55:14;18.40;;;1.73;;
61391;SDS011;47261;52.892;5.738;2023-03-31T03:03:42;12.03;;;1.53;;
61391;SDS011;47261;52.892;5.738;2023-03-31T03:16:32;11.13;;;2.20;;
61391;SDS011;47261;52.892;5.738;2023-03-31T03:19:02;16.73;;;2.80;;
61391;SDS011;47261;52.892;5.738;2023-03-31T03:21:30;9.10;;;1.23;;
61391;SDS011;47261;52.892;5.738;2023-03-31T03:23:57;10.27;;;2.53;;
61391;SDS011;47261;52.892;5.738;2023-03-31T03:26:24;18.35;;;2.70;;
61391;SDS011;47261;52.892;5.738;2023-03-31T03:28:52;7.53;;;1.48;;
61391;SDS011;47261;52.892;5.738;2023-03-31T03:31:19;11.68;;;2.35;;
61391;SDS011;47261;52.892;5.738;2023-03-31T03:33:47;12.52;;;2.47;;
61391;SDS011;47261;52.892;5.738;2023-03-31T03:36:13;14.60;;;2.27;;
61391;SDS011;47261;52.892;5.738;2023-03-31T03:38:39;8.13;;;2.03;;
61391;SDS011;47261;52.892;5.738;2023-03-31T03:41:05;11.07;;;2.20;;
61391;SDS011;47261;52.892;5.738;2023-03-31T03:43:31;6.40;;;1.70;;
61391;SDS011;47261;52.892;5.738;2023-03-31T03:45:56;21.03;;;3.60;;
61391;SDS011;47261;52.892;5.738;2023-03-31T03:48:22;17.80;;;2.95;;
61391;SDS011;47261;52.892;5.738;2023-03-31T03:50:47;10.30;;;2.73;;
61391;SDS011;47261;52.892;5.738;2023-03-31T03:53:14;12.98;;;2.90;;
61391;SDS011;47261;52.892;5.738;2023-03-31T03:55:40;13.15;;;2.72;;
61391;SDS011;47261;52.892;5.738;2023-03-31T03:58:06;15.87;;;3.47;;
61391;SDS011;47261;52.892;5.738;2023-03-31T04:00:32;11.73;;;2.83;;
61391;SDS011;47261;52.892;5.738;2023-03-31T04:02:58;16.25;;;2.72;;
61391;SDS011;47261;52.892;5.738;2023-03-31T04:05:23;13.17;;;3.03;;
61391;SDS011;47261;52.892;5.738;2023-03-31T04:07:49;14.52;;;3.63;;
61391;SDS011;47261;52.892;5.738;2023-03-31T04:10:14;14.03;;;3.03;;
61391;SDS011;47261;52.892;5.738;2023-03-31T04:12:40;17.88;;;4.32;;
61391;SDS011;47261;52.892;5.738;2023-03-31T04:15:06;16.23;;;4.10;;
61391;SDS011;47261;52.892;5.738;2023-03-31T04:17:32;17.17;;;4.22;;
61391;SDS011;47261;52.892;5.738;2023-03-31T04:20:16;25.38;;;5.05;;
61391;SDS011;47261;52.892;5.738;2023-03-31T04:22:42;17.05;;;4.60;;
61391;SDS011;47261;52.892;5.738;2023-03-31T04:25:11;19.85;;;5.13;;
61391;SDS011;47261;52.892;5.738;2023-03-31T04:27:47;17.03;;;4.37;;
61391;SDS011;47261;52.892;5.738;2023-03-31T04:30:17;17.48;;;4.53;;
61391;SDS011;47261;52.892;5.738;2023-03-31T04:32:55;16.42;;;3.80;;
61391;SDS011;47261;52.892;5.738;2023-03-31T04:35:23;14.85;;;3.90;;
61391;SDS011;47261;52.892;5.738;2023-03-31T04:37:51;15.70;;;4.43;;
61391;SDS011;47261;52.892;5.738;2023-03-31T04:40:23;13.00;;;2.83;;
61391;SDS011;47261;52.892;5.738;2023-03-31T04:42:49;17.35;;;4.97;;
61391;SDS011;47261;52.892;5.738;2023-03-31T04:45:15;17.88;;;4.38;;
61391;SDS011;47261;52.892;5.738;2023-03-31T04:47:41;15.65;;;4.85;;
61391;SDS011;47261;52.892;5.738;2023-03-31T04:50:07;13.63;;;3.13;;
61391;SDS011;47261;52.892;5.738;2023-03-31T04:52:35;17.50;;;4.43;;
61391;SDS011;47261;52.892;5.738;2023-03-31T04:55:01;10.77;;;3.75;;
61391;SDS011;47261;52.892;5.738;2023-03-31T04:57:27;19.67;;;4.25;;
61391;SDS011;47261;52.892;5.738;2023-03-31T04:59:53;15.03;;;4.13;;
61391;SDS011;47261;52.892;5.738;2023-03-31T05:02:19;17.65;;;4.63;;
61391;SDS011;47261;52.892;5.738;2023-03-31T05:04:50;16.70;;;3.60;;
61391;SDS011;47261;52.892;5.738;2023-03-31T05:07:19;18.77;;;4.43;;
61391;SDS011;47261;52.892;5.738;2023-03-31T05:09:45;17.65;;;4.85;;
61391;SDS011;47261;52.892;5.738;2023-03-31T05:12:11;20.30;;;4.90;;
61391;SDS011;47261;52.892;5.738;2023-03-31T05:14:37;15.00;;;4.70;;
61391;SDS011;47261;52.892;5.738;2023-03-31T05:17:02;20.77;;;5.70;;
61391;SDS011;47261;52.892;5.738;2023-03-31T05:19:28;21.00;;;4.93;;
61391;SDS011;47261;52.892;5.738;2023-03-31T05:21:54;18.70;;;5.20;;
61391;SDS011;47261;52.892;5.738;2023-03-31T05:24:19;14.73;;;4.57;;
61391;SDS011;47261;52.892;5.738;2023-03-31T05:26:45;20.92;;;4.80;;
61391;SDS011;47261;52.892;5.738;2023-03-31T05:29:16;18.13;;;5.10;;
61391;SDS011;47261;52.892;5.738;2023-03-31T05:31:42;18.55;;;4.25;;
61391;SDS011;47261;52.892;5.738;2023-03-31T05:34:08;16.08;;;4.50;;
61391;SDS011;47261;52.892;5.738;2023-03-31T05:36:34;14.00;;;4.17;;
61391;SDS011;47261;52.892;5.738;2023-03-31T05:39:01;15.32;;;4.35;;
61391;SDS011;47261;52.892;5.738;2023-03-31T05:41:27;17.33;;;3.38;;
61391;SDS011;47261;52.892;5.738;2023-03-31T05:43:53;12.87;;;3.20;;
61391;SDS011;47261;52.892;5.738;2023-03-31T05:46:19;11.82;;;3.08;;
61391;SDS011;47261;52.892;5.738;2023-03-31T05:48:44;8.23;;;2.40;;
61391;SDS011;47261;52.892;5.738;2023-03-31T05:51:10;11.83;;;2.73;;
61391;SDS011;47261;52.892;5.738;2023-03-31T05:53:36;8.70;;;2.50;;
61391;SDS011;47261;52.892;5.738;2023-03-31T05:56:03;10.17;;;2.23;;
61391;SDS011;47261;52.892;5.738;2023-03-31T05:58:32;11.38;;;2.35;;
61391;SDS011;47261;52.892;5.738;2023-03-31T06:01:00;14.48;;;2.10;;
61391;SDS011;47261;52.892;5.738;2023-03-31T06:03:26;11.50;;;1.92;;
61391;SDS011;47261;52.892;5.738;2023-03-31T06:05:52;8.90;;;1.33;;
61391;SDS011;47261;52.892;5.738;2023-03-31T06:08:19;9.52;;;1.70;;
61391;SDS011;47261;52.892;5.738;2023-03-31T06:10:45;8.90;;;1.43;;
61391;SDS011;47261;52.892;5.738;2023-03-31T06:13:10;9.45;;;1.40;;
61391;SDS011;47261;52.892;5.738;2023-03-31T06:15:36;9.43;;;1.57;;
61391;SDS011;47261;52.892;5.738;2023-03-31T06:18:02;5.57;;;1.15;;
61391;SDS011;47261;52.892;5.738;2023-03-31T06:20:27;7.97;;;1.47;;
61391;SDS011;47261;52.892;5.738;2023-03-31T06:22:53;10.73;;;1.40;;
61391;SDS011;47261;52.892;5.738;2023-03-31T06:25:19;6.60;;;1.20;;
61391;SDS011;47261;52.892;5.738;2023-03-31T06:27:45;9.15;;;1.30;;
61391;SDS011;47261;52.892;5.738;2023-03-31T06:30:11;11.13;;;1.50;;
61391;SDS011;47261;52.892;5.738;2023-03-31T06:32:37;7.35;;;1.13;;
61391;SDS011;47261;52.892;5.738;2023-03-31T06:35:02;5.83;;;1.10;;
61391;SDS011;47261;52.892;5.738;2023-03-31T06:37:28;4.60;;;0.90;;
61391;SDS011;47261;52.892;5.738;2023-03-31T06:39:54;3.88;;;0.68;;
61391;SDS011;47261;52.892;5.738;2023-03-31T06:42:20;7.13;;;1.53;;
61391;SDS011;47261;52.892;5.738;2023-03-31T06:44:45;5.43;;;0.80;;
61391;SDS011;47261;52.892;5.738;2023-03-31T06:47:11;5.22;;;1.10;;
61391;SDS011;47261;52.892;5.738;2023-03-31T06:49:36;9.27;;;1.27;;
61391;SDS011;47261;52.892;5.738;2023-03-31T06:52:02;8.13;;;1.10;;
61391;SDS011;47261;52.892;5.738;2023-03-31T06:54:28;7.27;;;1.20;;
61391;SDS011;47261;52.892;5.738;2023-03-31T06:56:53;8.77;;;1.15;;
61391;SDS011;47261;52.892;5.738;2023-03-31T06:59:19;2.27;;;0.40;;
61391;SDS011;47261;52.892;5.738;2023-03-31T07:01:45;8.05;;;1.27;;
61391;SDS011;47261;52.892;5.738;2023-03-31T07:04:12;6.80;;;1.13;;
61391;SDS011;47261;52.892;5.738;2023-03-31T07:06:38;5.20;;;1.02;;
61391;SDS011;47261;52.892;5.738;2023-03-31T07:09:03;5.73;;;1.17;;
61391;SDS011;47261;52.892;5.738;2023-03-31T07:11:29;8.13;;;1.20;;
61391;SDS011;47261;52.892;5.738;2023-03-31T07:13:55;7.03;;;1.40;;
61391;SDS011;47261;52.892;5.738;2023-03-31T07:16:21;7.90;;;1.53;;
61391;SDS011;47261;52.892;5.738;2023-03-31T07:18:47;7.57;;;1.50;;
61391;SDS011;47261;52.892;5.738;2023-03-31T07:21:14;4.57;;;0.85;;
61391;SDS011;47261;52.892;5.738;2023-03-31T07:23:40;7.50;;;1.27;;
61391;SDS011;47261;52.892;5.738;2023-03-31T07:26:06;5.03;;;1.00;;
61391;SDS011;47261;52.892;5.738;2023-03-31T07:28:32;7.20;;;1.50;;
61391;SDS011;47261;52.892;5.738;2023-03-31T07:30:58;8.23;;;1.77;;
61391;SDS011;47261;52.892;5.738;2023-03-31T07:33:23;6.83;;;1.10;;
61391;SDS011;47261;52.892;5.738;2023-03-31T07:35:49;7.32;;;1.73;;
61391;SDS011;47261;52.892;5.738;2023-03-31T07:38:15;3.63;;;0.80;;
61391;SDS011;47261;52.892;5.738;2023-03-31T07:40:41;6.50;;;1.20;;
61391;SDS011;47261;52.892;5.738;2023-03-31T07:43:08;8.77;;;2.00;;
61391;SDS011;47261;52.892;5.738;2023-03-31T07:45:34;7.63;;;1.23;;
61391;SDS011;47261;52.892;5.738;2023-03-31T07:47:59;2.28;;;0.73;;
61391;SDS011;47261;52.892;5.738;2023-03-31T07:50:25;6.47;;;1.40;;
61391;SDS011;47261;52.892;5.738;2023-03-31T07:52:51;6.60;;;1.67;;
61391;SDS011;47261;52.892;5.738;2023-03-31T07:55:17;3.50;;;0.90;;
61391;SDS011;47261;52.892;5.738;2023-03-31T07:57:44;3.85;;;0.98;;
61391;SDS011;47261;52.892;5.738;2023-03-31T08:00:11;8.05;;;1.50;;
61391;SDS011;47261;52.892;5.738;2023-03-31T08:02:37;12.45;;;1.75;;
61391;SDS011;47261;52.892;5.738;2023-03-31T08:05:05;8.53;;;2.07;;
61391;SDS011;47261;52.892;5.738;2023-03-31T08:07:35;10.45;;;1.85;;
61391;SDS011;47261;52.892;5.738;2023-03-31T08:10:03;9.82;;;1.80;;
61391;SDS011;47261;52.892;5.738;2023-03-31T08:12:30;7.55;;;2.00;;
61391;SDS011;47261;52.892;5.738;2023-03-31T08:14:56;3.00;;;0.73;;
61391;SDS011;47261;52.892;5.738;2023-03-31T08:17:21;9.50;;;1.92;;
61391;SDS011;47261;52.892;5.738;2023-03-31T08:19:47;8.93;;;1.37;;
61391;SDS011;47261;52.892;5.738;2023-03-31T08:22:14;11.05;;;2.40;;
61391;SDS011;47261;52.892;5.738;2023-03-31T08:24:40;7.63;;;1.80;;
61391;SDS011;47261;52.892;5.738;2023-03-31T08:27:05;8.23;;;1.00;;
61391;SDS011;47261;52.892;5.738;2023-03-31T08:29:31;13.27;;;2.20;;
61391;SDS011;47261;52.892;5.738;2023-03-31T08:31:56;8.43;;;1.57;;
61391;SDS011;47261;52.892;5.738;2023-03-31T08:34:23;7.72;;;1.80;;
61391;SDS011;47261;52.892;5.738;2023-03-31T08:36:48;7.60;;;1.70;;
61391;SDS011;47261;52.892;5.738;2023-03-31T08:39:14;4.90;;;1.30;;
61391;SDS011;47261;52.892;5.738;2023-03-31T08:41:43;9.27;;;1.57;;
61391;SDS011;47261;52.892;5.738;2023-03-31T08:44:58;6.65;;;1.95;;
61391;SDS011;47261;52.892;5.738;2023-03-31T08:46:58;3.78;;;0.85;;
61391;SDS011;47261;52.892;5.738;2023-03-31T08:49:26;5.88;;;1.10;;
61391;SDS011;47261;52.892;5.738;2023-03-31T08:51:56;2.83;;;0.80;;
61391;SDS011;47261;52.892;5.738;2023-03-31T08:54:32;6.35;;;1.48;;
61391;SDS011;47261;52.892;5.738;2023-03-31T08:57:04;10.13;;;2.35;;
61391;SDS011;47261;52.892;5.738;2023-03-31T08:59:39;3.30;;;1.10;;
61391;SDS011;47261;52.892;5.738;2023-03-31T09:07:15;1.75;;;0.52;;
61391;SDS011;47261;52.892;5.738;2023-03-31T09:12:22;5.18;;;1.10;;
61391;SDS011;47261;52.892;5.738;2023-03-31T09:15:03;6.80;;;1.13;;
61391;SDS011;47261;52.892;5.738;2023-03-31T09:17:51;7.57;;;1.80;;
61391;SDS011;47261;52.892;5.738;2023-03-31T09:20:21;5.78;;;1.65;;
61391;SDS011;47261;52.892;5.738;2023-03-31T09:25:51;4.60;;;1.10;;
61391;SDS011;47261;52.892;5.738;2023-03-31T09:28:20;7.95;;;1.30;;
61391;SDS011;47261;52.892;5.738;2023-03-31T09:30:48;4.87;;;1.23;;
61391;SDS011;47261;52.892;5.738;2023-03-31T09:33:15;8.50;;;1.55;;
61391;SDS011;47261;52.892;5.738;2023-03-31T09:35:59;7.28;;;1.40;;
61391;SDS011;47261;52.892;5.738;2023-03-31T09:38:25;6.25;;;1.67;;
61391;SDS011;47261;52.892;5.738;2023-03-31T09:40:57;5.75;;;1.50;;
61391;SDS011;47261;52.892;5.738;2023-03-31T09:43:25;6.80;;;1.10;;
61391;SDS011;47261;52.892;5.738;2023-03-31T09:45:52;7.60;;;2.03;;
61391;SDS011;47261;52.892;5.738;2023-03-31T09:48:29;6.60;;;1.50;;
61391;SDS011;47261;52.892;5.738;2023-03-31T09:51:05;4.50;;;0.90;;
61391;SDS011;47261;52.892;5.738;2023-03-31T09:53:48;7.90;;;2.22;;
61391;SDS011;47261;52.892;5.738;2023-03-31T09:59:11;7.93;;;1.60;;
61391;SDS011;47261;52.892;5.738;2023-03-31T10:02:42;4.15;;;1.00;;
61391;SDS011;47261;52.892;5.738;2023-03-31T10:04:57;4.90;;;1.58;;
61391;SDS011;47261;52.892;5.738;2023-03-31T10:07:23;10.40;;;1.47;;
61391;SDS011;47261;52.892;5.738;2023-03-31T10:09:50;9.50;;;2.28;;
61391;SDS011;47261;52.892;5.738;2023-03-31T10:12:19;5.88;;;1.52;;
61391;SDS011;47261;52.892;5.738;2023-03-31T10:14:52;7.93;;;1.77;;
61391;SDS011;47261;52.892;5.738;2023-03-31T10:17:26;14.18;;;1.33;;
61391;SDS011;47261;52.892;5.738;2023-03-31T10:19:57;4.07;;;1.00;;
61391;SDS011;47261;52.892;5.738;2023-03-31T10:22:27;9.57;;;2.22;;
61391;SDS011;47261;52.892;5.738;2023-03-31T10:25:03;3.15;;;0.80;;
61391;SDS011;47261;52.892;5.738;2023-03-31T10:27:43;8.38;;;1.92;;
61391;SDS011;47261;52.892;5.738;2023-03-31T10:30:16;10.60;;;1.70;;
61391;SDS011;47261;52.892;5.738;2023-03-31T10:32:46;9.63;;;1.37;;
61391;SDS011;47261;52.892;5.738;2023-03-31T10:35:15;9.32;;;1.35;;
61391;SDS011;47261;52.892;5.738;2023-03-31T10:37:48;6.40;;;0.80;;
61391;SDS011;47261;52.892;5.738;2023-03-31T10:40:20;6.73;;;1.20;;
61391;SDS011;47261;52.892;5.738;2023-03-31T10:42:49;9.07;;;1.33;;
61391;SDS011;47261;52.892;5.738;2023-03-31T10:45:26;7.60;;;1.10;;
61391;SDS011;47261;52.892;5.738;2023-03-31T10:47:55;8.93;;;1.60;;
61391;SDS011;47261;52.892;5.738;2023-03-31T10:50:35;5.93;;;0.98;;
61391;SDS011;47261;52.892;5.738;2023-03-31T10:53:02;6.17;;;1.10;;
61391;SDS011;47261;52.892;5.738;2023-03-31T10:55:34;9.93;;;1.30;;
61391;SDS011;47261;52.892;5.738;2023-03-31T10:58:22;7.95;;;1.20;;
61391;SDS011;47261;52.892;5.738;2023-03-31T11:01:21;6.82;;;1.40;;
61391;SDS011;47261;52.892;5.738;2023-03-31T11:06:51;6.87;;;1.57;;
61391;SDS011;47261;52.892;5.738;2023-03-31T11:18:10;7.80;;;1.10;;
61391;SDS011;47261;52.892;5.738;2023-03-31T11:23:20;9.35;;;1.55;;
61391;SDS011;47261;52.892;5.738;2023-03-31T11:26:17;18.55;;;2.58;;
61391;SDS011;47261;52.892;5.738;2023-03-31T11:37:55;8.98;;;1.60;;
61391;SDS011;47261;52.892;5.738;2023-03-31T11:44:11;6.68;;;1.80;;
61391;SDS011;47261;52.892;5.738;2023-03-31T11:46:21;15.70;;;2.20;;
61391;SDS011;47261;52.892;5.738;2023-03-31T11:48:52;11.47;;;2.27;;
61391;SDS011;47261;52.892;5.738;2023-03-31T11:51:24;8.43;;;1.40;;
61391;SDS011;47261;52.892;5.738;2023-03-31T11:53:51;10.25;;;1.98;;
61391;SDS011;47261;52.892;5.738;2023-03-31T11:56:18;10.43;;;1.58;;
61391;SDS011;47261;52.892;5.738;2023-03-31T11:58:56;8.88;;;1.50;;
61391;SDS011;47261;52.892;5.738;2023-03-31T12:01:38;13.47;;;1.93;;
61391;SDS011;47261;52.892;5.738;2023-03-31T12:04:17;13.18;;;2.00;;
61391;SDS011;47261;52.892;5.738;2023-03-31T12:07:02;12.32;;;1.80;;
61391;SDS011;47261;52.892;5.738;2023-03-31T12:12:29;13.35;;;1.75;;
61391;SDS011;47261;52.892;5.738;2023-03-31T12:17:46;10.45;;;1.13;;
61391;SDS011;47261;52.892;5.738;2023-03-31T12:20:20;6.63;;;1.60;;
61391;SDS011;47261;52.892;5.738;2023-03-31T12:22:57;11.82;;;1.85;;
61391;SDS011;47261;52.892;5.738;2023-03-31T12:25:24;10.60;;;1.67;;
61391;SDS011;47261;52.892;5.738;2023-03-31T12:28:02;10.03;;;1.60;;
61391;SDS011;47261;52.892;5.738;2023-03-31T12:30:29;9.65;;;1.15;;
61391;SDS011;47261;52.892;5.738;2023-03-31T12:33:06;6.53;;;0.90;;
61391;SDS011;47261;52.892;5.738;2023-03-31T12:41:14;2.93;;;0.47;;
61391;SDS011;47261;52.892;5.738;2023-03-31T12:43:58;4.65;;;0.60;;
61391;SDS011;47261;52.892;5.738;2023-03-31T12:58:05;6.53;;;0.93;;
61391;SDS011;47261;52.892;5.738;2023-03-31T13:06:00;4.13;;;0.50;;
61391;SDS011;47261;52.892;5.738;2023-03-31T13:11:40;4.68;;;0.65;;
61391;SDS011;47261;52.892;5.738;2023-03-31T13:14:25;3.75;;;0.93;;
61391;SDS011;47261;52.892;5.738;2023-03-31T13:20:14;6.07;;;0.93;;
61391;SDS011;47261;52.892;5.738;2023-03-31T13:22:40;10.47;;;1.57;;
61391;SDS011;47261;52.892;5.738;2023-03-31T13:25:29;4.38;;;0.55;;
61391;SDS011;47261;52.892;5.738;2023-03-31T13:28:14;9.13;;;1.10;;
61391;SDS011;47261;52.892;5.738;2023-03-31T13:30:48;5.18;;;1.02;;
61391;SDS011;47261;52.892;5.738;2023-03-31T13:33:30;9.13;;;0.93;;
61391;SDS011;47261;52.892;5.738;2023-03-31T13:41:55;3.38;;;0.80;;
61391;SDS011;47261;52.892;5.738;2023-03-31T13:49:54;4.00;;;0.67;;
61391;SDS011;47261;52.892;5.738;2023-03-31T13:55:23;5.15;;;0.73;;
61391;SDS011;47261;52.892;5.738;2023-03-31T13:58:32;4.35;;;0.60;;
61391;SDS011;47261;52.892;5.738;2023-03-31T14:11:57;5.30;;;0.60;;
61391;SDS011;47261;52.892;5.738;2023-03-31T14:14:23;2.65;;;0.50;;
61391;SDS011;47261;52.892;5.738;2023-03-31T14:17:01;1.97;;;0.37;;
61391;SDS011;47261;52.892;5.738;2023-03-31T14:22:39;7.07;;;0.60;;
61391;SDS011;47261;52.892;5.738;2023-03-31T14:25:25;2.33;;;0.50;;
61391;SDS011;47261;52.892;5.738;2023-03-31T14:36:05;7.60;;;1.17;;
61391;SDS011;47261;52.892;5.738;2023-03-31T14:39:11;4.77;;;0.63;;
61391;SDS011;47261;52.892;5.738;2023-03-31T14:41:40;8.00;;;1.33;;
61391;SDS011;47261;52.892;5.738;2023-03-31T14:44:11;2.85;;;0.60;;
61391;SDS011;47261;52.892;5.738;2023-03-31T14:46:40;6.32;;;1.15;;
61391;SDS011;47261;52.892;5.738;2023-03-31T14:49:28;7.53;;;0.80;;
61391;SDS011;47261;52.892;5.738;2023-03-31T14:52:04;10.15;;;0.82;;
61391;SDS011;47261;52.892;5.738;2023-03-31T14:54:44;9.50;;;1.50;;
61391;SDS011;47261;52.892;5.738;2023-03-31T14:57:33;8.98;;;1.05;;
61391;SDS011;47261;52.892;5.738;2023-03-31T15:00:03;8.82;;;0.93;;
61391;SDS011;47261;52.892;5.738;2023-03-31T15:02:36;7.60;;;1.00;;
61391;SDS011;47261;52.892;5.738;2023-03-31T15:05:12;5.38;;;0.90;;
61391;SDS011;47261;52.892;5.738;2023-03-31T15:07:55;4.43;;;0.60;;
61391;SDS011;47261;52.892;5.738;2023-03-31T15:10:34;3.10;;;0.70;;
61391;SDS011;47261;52.892;5.738;2023-03-31T15:13:28;11.57;;;1.33;;
61391;SDS011;47261;52.892;5.738;2023-03-31T15:15:57;7.23;;;1.47;;
61391;SDS011;47261;52.892;5.738;2023-03-31T15:18:24;11.07;;;1.08;;
61391;SDS011;47261;52.892;5.738;2023-03-31T15:20:50;7.97;;;1.35;;
61391;SDS011;47261;52.892;5.738;2023-03-31T15:23:18;7.07;;;1.00;;
61391;SDS011;47261;52.892;5.738;2023-03-31T15:25:57;9.98;;;1.10;;
61391;SDS011;47261;52.892;5.738;2023-03-31T15:28:35;9.40;;;1.48;;
61391;SDS011;47261;52.892;5.738;2023-03-31T15:31:06;11.30;;;2.13;;
61391;SDS011;47261;52.892;5.738;2023-03-31T15:33:33;6.72;;;0.88;;
61391;SDS011;47261;52.892;5.738;2023-03-31T15:36:00;8.27;;;0.80;;
61391;SDS011;47261;52.892;5.738;2023-03-31T15:38:27;8.63;;;1.67;;
61391;SDS011;47261;52.892;5.738;2023-03-31T15:40:56;11.15;;;2.42;;
61391;SDS011;47261;52.892;5.738;2023-03-31T15:43:27;9.03;;;0.90;;
61391;SDS011;47261;52.892;5.738;2023-03-31T15:45:56;4.85;;;1.20;;
61391;SDS011;47261;52.892;5.738;2023-03-31T15:48:27;9.70;;;1.77;;
61391;SDS011;47261;52.892;5.738;2023-03-31T15:53:47;6.30;;;0.90;;
61391;SDS011;47261;52.892;5.738;2023-03-31T15:58:57;8.43;;;1.00;;
61391;SDS011;47261;52.892;5.738;2023-03-31T16:01:42;7.75;;;0.73;;
61391;SDS011;47261;52.892;5.738;2023-03-31T16:04:11;6.53;;;0.95;;
61391;SDS011;47261;52.892;5.738;2023-03-31T16:09:19;4.63;;;0.70;;
61391;SDS011;47261;52.892;5.738;2023-03-31T16:11:52;4.10;;;0.60;;
61391;SDS011;47261;52.892;5.738;2023-03-31T16:14:30;6.63;;;0.60;;
61391;SDS011;47261;52.892;5.738;2023-03-31T16:17:03;6.05;;;0.70;;
61391;SDS011;47261;52.892;5.738;2023-03-31T16:19:43;5.28;;;1.00;;
61391;SDS011;47261;52.892;5.738;2023-03-31T16:22:16;5.47;;;0.70;;
61391;SDS011;47261;52.892;5.738;2023-03-31T16:24:45;5.80;;;0.60;;
61391;SDS011;47261;52.892;5.738;2023-03-31T16:27:11;2.95;;;0.40;;
61391;SDS011;47261;52.892;5.738;2023-03-31T16:29:37;5.00;;;0.57;;
61391;SDS011;47261;52.892;5.738;2023-03-31T16:32:13;2.43;;;0.60;;
61391;SDS011;47261;52.892;5.738;2023-03-31T16:34:59;4.00;;;0.77;;
61391;SDS011;47261;52.892;5.738;2023-03-31T16:37:26;4.72;;;0.90;;
61391;SDS011;47261;52.892;5.738;2023-03-31T16:39:52;2.25;;;0.50;;
61391;SDS011;47261;52.892;5.738;2023-03-31T16:42:18;3.07;;;0.53;;
61391;SDS011;47261;52.892;5.738;2023-03-31T16:44:44;3.92;;;0.60;;
61391;SDS011;47261;52.892;5.738;2023-03-31T16:47:11;3.15;;;0.65;;
61391;SDS011;47261;52.892;5.738;2023-03-31T16:49:37;3.05;;;0.50;;
61391;SDS011;47261;52.892;5.738;2023-03-31T16:52:03;2.77;;;0.47;;
61391;SDS011;47261;52.892;5.738;2023-03-31T16:54:29;1.40;;;0.40;;
61391;SDS011;47261;52.892;5.738;2023-03-31T16:56:55;4.07;;;0.68;;
61391;SDS011;47261;52.892;5.738;2023-03-31T16:59:21;2.90;;;0.60;;
61391;SDS011;47261;52.892;5.738;2023-03-31T17:01:48;5.45;;;0.82;;
61391;SDS011;47261;52.892;5.738;2023-03-31T17:04:15;3.58;;;0.30;;
61391;SDS011;47261;52.892;5.738;2023-03-31T17:06:41;2.55;;;0.52;;
61391;SDS011;47261;52.892;5.738;2023-03-31T17:09:06;6.40;;;0.70;;
61391;SDS011;47261;52.892;5.738;2023-03-31T17:11:32;2.67;;;0.50;;
61391;SDS011;47261;52.892;5.738;2023-03-31T17:13:58;7.32;;;0.90;;
61391;SDS011;47261;52.892;5.738;2023-03-31T17:16:24;4.10;;;0.60;;
61391;SDS011;47261;52.892;5.738;2023-03-31T17:18:50;7.23;;;0.70;;
61391;SDS011;47261;52.892;5.738;2023-03-31T17:21:17;3.70;;;0.85;;
61391;SDS011;47261;52.892;5.738;2023-03-31T17:23:43;4.10;;;0.85;;
61391;SDS011;47261;52.892;5.738;2023-03-31T17:26:09;3.35;;;0.60;;
61391;SDS011;47261;52.892;5.738;2023-03-31T17:28:38;5.00;;;0.60;;
61391;SDS011;47261;52.892;5.738;2023-03-31T17:31:15;2.60;;;0.60;;
61391;SDS011;47261;52.892;5.738;2023-03-31T17:33:42;2.47;;;0.50;;
61391;SDS011;47261;52.892;5.738;2023-03-31T17:36:09;5.82;;;0.85;;
61391;SDS011;47261;52.892;5.738;2023-03-31T17:38:35;6.72;;;0.60;;
61391;SDS011;47261;52.892;5.738;2023-03-31T17:41:06;4.93;;;0.80;;
61391;SDS011;47261;52.892;5.738;2023-03-31T17:43:34;5.93;;;1.20;;
61391;SDS011;47261;52.892;5.738;2023-03-31T17:46:08;6.15;;;1.20;;
61391;SDS011;47261;52.892;5.738;2023-03-31T17:48:34;5.07;;;1.00;;
61391;SDS011;47261;52.892;5.738;2023-03-31T17:51:05;4.88;;;1.00;;